Time;durP1;ratioP1;P1;durP2;ratioP2;P2;SDS_P1;SDS_P2;PMS_P1;PMS_P2;Temp;Humidity;BMP_temperature;BMP_pressure;BME280_temperature;BME280_humidity;BME280_pressure;Samples;Min_cycle;Max_cycle;Signal;HPM_P1;HPM_P2
2022/08/03 06:17:11;;;;;;;5.63;1.80;;;24.20;67.40;;;;;;4994368;28;20116;-85
2022/08/03 06:19:37;;;;;;;2.10;1.58;;;24.20;67.50;;;;;;5001482;28;20034;-85
2022/08/03 06:22:45;;;;;;;4.30;1.75;;;24.40;67.30;;;;;;5013392;28;20025;-85
2022/08/03 06:25:11;;;;;;;1.90;1.35;;;24.40;68.00;;;;;;5013394;28;20504;-84
2022/08/03 06:27:38;;;;;;;4.30;1.33;;;24.50;67.30;;;;;;5013742;28;20030;-84
2022/08/03 06:30:23;;;;;;;3.58;1.45;;;24.60;66.00;;;;;;5015154;28;20080;-85
2022/08/03 06:32:49;;;;;;;3.13;1.48;;;24.80;66.60;;;;;;5011219;28;20026;-84
2022/08/03 06:35:20;;;;;;;2.42;1.65;;;24.80;66.70;;;;;;5001162;28;20075;-84
2022/08/03 06:37:50;;;;;;;4.50;1.88;;;24.90;65.90;;;;;;5014966;28;20025;-85
2022/08/03 06:40:18;;;;;;;4.80;1.52;;;25.00;64.70;;;;;;5005564;28;20479;-84
2022/08/03 06:46:05;;;;;;;2.63;1.80;;;25.10;65.10;;;;;;4995515;28;20053;-83
2022/08/03 06:48:42;;;;;;;1.50;1.40;;;25.10;64.40;;;;;;5002090;28;20026;-84
2022/08/03 06:51:07;;;;;;;2.67;1.10;;;25.20;64.60;;;;;;5014770;28;20065;-84
2022/08/03 06:53:33;;;;;;;3.53;1.65;;;25.30;64.70;;;;;;5005286;28;20058;-84
2022/08/03 06:56:12;;;;;;;2.40;1.65;;;25.30;66.90;;;;;;4994774;28;20452;-85
2022/08/03 06:58:38;;;;;;;2.97;1.40;;;25.30;65.90;;;;;;5010286;28;20034;-84
2022/08/03 07:01:03;;;;;;;2.63;1.40;;;25.30;65.90;;;;;;5000823;28;20026;-84
2022/08/03 07:03:32;;;;;;;2.70;1.48;;;25.30;65.40;;;;;;5012274;28;20033;-85
2022/08/03 07:05:57;;;;;;;6.93;1.50;;;25.40;64.50;;;;;;5012601;28;20022;-84
2022/08/03 07:08:23;;;;;;;1.67;1.40;;;25.50;65.80;;;;;;5014441;28;20374;-84
2022/08/03 07:11:07;;;;;;;4.80;1.50;;;25.50;65.60;;;;;;5013625;28;20094;-84
2022/08/03 07:13:33;;;;;;;1.90;1.52;;;25.60;66.90;;;;;;5013990;28;20041;-84
2022/08/03 07:15:58;;;;;;;2.47;1.70;;;25.60;67.30;;;;;;5006305;28;20034;-84
2022/08/03 07:18:24;;;;;;;2.22;1.38;;;25.70;66.90;;;;;;5014284;28;20053;-84
2022/08/03 07:20:49;;;;;;;4.38;1.60;;;25.70;65.70;;;;;;5013942;28;20025;-84
2022/08/03 07:23:37;;;;;;;3.47;1.52;;;25.80;65.50;;;;;;5013906;28;20069;-84
2022/08/03 07:26:03;;;;;;;7.25;1.80;;;25.90;65.70;;;;;;5013298;28;20029;-84
2022/08/03 07:28:49;;;;;;;3.42;1.60;;;26.00;62.90;;;;;;5014025;28;20021;-84
2022/08/03 07:31:14;;;;;;;1.52;1.40;;;26.00;62.70;;;;;;5012392;28;20022;-84
2022/08/03 07:33:40;;;;;;;4.20;1.45;;;26.00;62.00;;;;;;5013886;28;20109;-84
2022/08/03 07:36:08;;;;;;;6.38;1.40;;;26.10;63.30;;;;;;5010582;28;20113;-82
2022/08/03 07:38:35;;;;;;;2.85;1.52;;;26.10;62.30;;;;;;5012827;28;20022;-84
2022/08/03 07:41:12;;;;;;;2.05;1.35;;;26.10;62.70;;;;;;4997558;28;20045;-84
2022/08/03 07:43:38;;;;;;;7.15;2.15;;;26.10;62.80;;;;;;4994118;28;20026;-84
2022/08/03 07:46:03;;;;;;;2.17;1.40;;;26.20;61.10;;;;;;5001058;28;20080;-84
2022/08/03 07:48:29;;;;;;;3.88;1.50;;;26.30;60.80;;;;;;5013492;28;20029;-83
2022/08/03 07:50:57;;;;;;;6.85;1.65;;;26.30;59.70;;;;;;5012530;28;20466;-84
2022/08/03 07:53:23;;;;;;;4.72;1.65;;;26.40;59.60;;;;;;5010698;28;20756;-85
2022/08/03 07:55:50;;;;;;;4.30;1.73;;;26.40;59.60;;;;;;5011785;28;20033;-84
2022/08/03 07:58:16;;;;;;;2.25;1.50;;;26.50;58.40;;;;;;5013032;28;20149;-85
2022/08/03 08:00:43;;;;;;;4.72;1.88;;;26.40;58.20;;;;;;5013117;28;20156;-85
2022/08/03 08:03:21;;;;;;;4.97;1.65;;;26.50;58.80;;;;;;5011606;28;20470;-84
2022/08/03 08:05:47;;;;;;;11.45;1.63;;;26.50;57.90;;;;;;5013230;28;20053;-86
2022/08/03 08:08:14;;;;;;;2.05;1.73;;;26.50;58.20;;;;;;5013174;28;20030;-85
2022/08/03 08:10:39;;;;;;;3.03;1.73;;;26.50;58.80;;;;;;5013281;28;20022;-85
2022/08/03 08:13:05;;;;;;;3.28;1.55;;;26.60;57.20;;;;;;5013274;28;20034;-84
2022/08/03 08:16:00;;;;;;;5.20;1.67;;;26.60;57.20;;;;;;5012100;28;20120;-85
2022/08/03 08:18:28;;;;;;;9.27;1.65;;;26.70;55.90;;;;;;5013160;28;20077;-84
2022/08/03 08:20:54;;;;;;;7.38;1.58;;;26.80;55.70;;;;;;5013125;28;20021;-82
2022/08/03 08:23:38;;;;;;;3.58;1.50;;;26.80;56.10;;;;;;5011688;28;20493;-84
2022/08/03 08:26:03;;;;;;;4.53;1.75;;;26.80;55.40;;;;;;5012815;28;20347;-84
2022/08/03 08:28:29;;;;;;;8.10;1.70;;;26.80;55.30;;;;;;5013108;28;20072;-84
2022/08/03 08:31:15;;;;;;;3.85;1.73;;;26.90;56.10;;;;;;5011662;28;20026;-84
2022/08/03 08:33:40;;;;;;;6.32;1.52;;;27.00;55.30;;;;;;5013509;28;20077;-85
2022/08/03 08:36:06;;;;;;;6.13;1.40;;;27.00;54.10;;;;;;5012250;28;20486;-83
2022/08/03 08:38:54;;;;;;;3.08;1.80;;;27.10;53.70;;;;;;5011323;28;20042;-83
2022/08/03 08:41:20;;;;;;;4.75;1.80;;;27.10;53.80;;;;;;5000071;28;20386;-84
2022/08/03 08:43:46;;;;;;;6.03;1.63;;;27.20;54.20;;;;;;5010526;28;20033;-83
2022/08/03 08:49:37;;;;;;;3.10;2.20;;;27.40;53.00;;;;;;5012968;28;20028;-84
2022/08/03 08:52:32;;;;;;;6.30;1.45;;;27.40;53.60;;;;;;5011160;28;20029;-84
2022/08/03 08:54:59;;;;;;;1.80;1.60;;;27.40;53.50;;;;;;5010082;28;20026;-84
2022/08/03 08:57:29;;;;;;;6.85;1.70;;;27.50;54.10;;;;;;5012400;28;20018;-84
2022/08/03 09:00:00;;;;;;;3.92;1.30;;;27.60;53.00;;;;;;5011495;28;20364;-84
2022/08/03 09:02:29;;;;;;;2.83;1.33;;;27.60;53.10;;;;;;5011569;28;20029;-83
2022/08/03 09:05:12;;;;;;;2.40;1.60;;;27.70;51.80;;;;;;5012319;28;20037;-83
2022/08/03 09:07:38;;;;;;;5.05;1.50;;;27.80;50.40;;;;;;5015859;28;20021;-84
2022/08/03 09:10:26;;;;;;;3.50;1.67;;;27.80;51.50;;;;;;5014416;28;20025;-84
2022/08/03 09:12:52;;;;;;;2.17;1.98;;;27.90;51.10;;;;;;5014708;28;20034;-84
2022/08/03 09:15:22;;;;;;;3.90;1.40;;;27.80;51.40;;;;;;5015762;28;20030;-84
2022/08/03 09:17:48;;;;;;;2.85;1.67;;;27.90;52.30;;;;;;5015953;28;20057;-84
2022/08/03 09:20:14;;;;;;;3.33;1.70;;;27.90;51.60;;;;;;5016648;28;20092;-84
2022/08/03 09:22:59;;;;;;;8.45;1.80;;;28.00;50.90;;;;;;5009731;28;20038;-84
2022/08/03 09:25:30;;;;;;;2.67;1.53;;;28.00;51.00;;;;;;4995730;28;20491;-83
2022/08/03 09:28:05;;;;;;;10.75;1.52;;;28.10;50.30;;;;;;5012852;28;20765;-84
2022/08/03 09:30:30;;;;;;;4.45;2.00;;;28.10;50.30;;;;;;5003240;28;20386;-83
2022/08/03 09:33:15;;;;;;;2.88;1.58;;;28.10;50.20;;;;;;4995327;28;20027;-84
2022/08/03 09:35:48;;;;;;;1.75;1.58;;;28.20;49.50;;;;;;4996398;28;20029;-83
2022/08/03 09:38:32;;;;;;;2.92;1.48;;;28.20;48.70;;;;;;5008137;28;20022;-84
2022/08/03 09:40:58;;;;;;;2.40;1.48;;;28.30;48.80;;;;;;5015265;28;20030;-83
2022/08/03 09:43:44;;;;;;;4.75;1.40;;;28.30;49.20;;;;;;5012694;28;20052;-83
2022/08/03 09:46:09;;;;;;;6.32;1.73;;;28.40;48.50;;;;;;5014900;28;20071;-83
2022/08/03 09:48:36;;;;;;;2.20;1.20;;;28.40;48.20;;;;;;5003045;28;20026;-83
2022/08/03 09:51:04;;;;;;;3.78;1.70;;;28.40;48.50;;;;;;4996073;28;20102;-83
2022/08/03 09:53:29;;;;;;;1.63;1.48;;;28.30;48.80;;;;;;5015913;28;20075;-83
2022/08/03 09:55:56;;;;;;;5.93;1.50;;;28.40;48.90;;;;;;5011846;28;20113;-83
2022/08/03 09:58:28;;;;;;;2.40;1.70;;;28.40;48.30;;;;;;5014009;28;20060;-82
2022/08/03 10:00:56;;;;;;;1.70;1.58;;;28.50;48.50;;;;;;5014088;28;20026;-83
2022/08/03 10:03:23;;;;;;;1.70;1.50;;;28.40;48.40;;;;;;5015605;28;20041;-83
2022/08/03 10:05:49;;;;;;;3.50;1.70;;;28.40;49.60;;;;;;5015139;28;20061;-83
2022/08/03 10:08:17;;;;;;;3.22;1.08;;;28.40;49.30;;;;;;5014152;28;20025;-83
2022/08/03 10:10:44;;;;;;;3.00;1.50;;;28.50;47.90;;;;;;5015228;28;20547;-82
2022/08/03 10:13:26;;;;;;;1.33;1.20;;;28.60;48.50;;;;;;5015571;28;20026;-84
2022/08/03 10:15:52;;;;;;;1.55;1.42;;;28.60;48.20;;;;;;5013231;28;20029;-84
2022/08/03 10:18:17;;;;;;;2.63;1.65;;;28.70;48.90;;;;;;5013877;28;20690;-84
2022/08/03 10:21:16;;;;;;;3.33;1.70;;;28.70;48.90;;;;;;5015409;28;20030;-83
2022/08/03 10:23:42;;;;;;;7.50;1.60;;;28.80;48.30;;;;;;5014986;28;20022;-84
2022/08/03 10:26:11;;;;;;;3.22;1.52;;;29.00;47.90;;;;;;5014059;28;20022;-83
2022/08/03 10:28:41;;;;;;;3.63;1.50;;;29.00;47.10;;;;;;5003615;28;20037;-84
2022/08/03 10:34:24;;;;;;;2.58;1.55;;;28.90;47.30;;;;;;5014673;28;20033;-83
2022/08/03 10:36:55;;;;;;;1.08;0.88;;;29.00;46.10;;;;;;5015076;28;20053;-83
2022/08/03 10:39:24;;;;;;;3.10;1.48;;;28.90;46.80;;;;;;5014660;28;20029;-83
2022/08/03 10:42:05;;;;;;;3.38;1.55;;;28.80;47.60;;;;;;5009047;28;20434;-83
2022/08/03 10:44:38;;;;;;;1.75;1.10;;;28.80;48.40;;;;;;4994630;28;20486;-83
2022/08/03 10:47:04;;;;;;;1.50;0.98;;;28.90;47.90;;;;;;5005562;28;20057;-83
2022/08/03 10:49:31;;;;;;;2.38;1.27;;;28.90;47.70;;;;;;5013043;28;20053;-83
2022/08/03 10:52:25;;;;;;;6.00;1.30;;;29.00;47.60;;;;;;5014355;28;20025;-84
2022/08/03 10:58:29;;;;;;;2.03;1.65;;;29.30;48.10;;;;;;5012393;28;20037;-83
2022/08/03 11:00:55;;;;;;;5.20;1.40;;;29.50;45.80;;;;;;5014360;28;20470;-83
2022/08/03 11:03:20;;;;;;;4.35;0.90;;;29.60;45.20;;;;;;5014774;28;20101;-83
2022/08/03 11:05:48;;;;;;;3.33;1.77;;;29.60;44.30;;;;;;5012513;28;20014;-83
2022/08/03 11:08:33;;;;;;;2.03;1.40;;;29.60;44.80;;;;;;5012943;28;20534;-83
2022/08/03 11:14:22;;;;;;;5.93;1.73;;;29.70;45.00;;;;;;4998733;28;20496;-83
2022/08/03 11:17:05;;;;;;;2.67;1.00;;;29.70;44.80;;;;;;5013369;28;20571;-83
2022/08/03 11:19:44;;;;;;;2.47;1.42;;;29.70;45.10;;;;;;5012563;28;20108;-84
2022/08/03 11:22:10;;;;;;;2.67;1.33;;;29.70;45.20;;;;;;5012346;28;20031;-83
2022/08/03 11:24:35;;;;;;;2.53;1.55;;;29.70;44.90;;;;;;5012492;28;20429;-84
2022/08/03 11:27:26;;;;;;;1.55;1.38;;;30.00;45.70;;;;;;5011852;28;20014;-83
2022/08/03 11:30:25;;;;;;;2.00;1.30;;;30.10;45.50;;;;;;5013459;28;20030;-83
2022/08/03 11:32:52;;;;;;;8.63;1.20;;;30.20;45.10;;;;;;5014058;28;20109;-83
2022/08/03 11:35:34;;;;;;;2.20;1.30;;;30.20;44.00;;;;;;5013527;28;20416;-83
2022/08/03 11:38:00;;;;;;;1.95;1.20;;;30.20;44.20;;;;;;5013774;28;20026;-82
2022/08/03 11:40:50;;;;;;;1.10;1.00;;;30.20;42.80;;;;;;5013748;28;20519;-83
2022/08/03 11:43:21;;;;;;;3.78;1.23;;;30.20;44.40;;;;;;5004807;28;20475;-83
2022/08/03 11:46:07;;;;;;;2.67;1.20;;;30.20;43.50;;;;;;5004948;28;20018;-83
2022/08/03 11:48:33;;;;;;;1.08;1.05;;;30.30;44.80;;;;;;5008203;28;20489;-83
2022/08/03 11:51:04;;;;;;;2.45;1.42;;;30.40;43.20;;;;;;4993109;28;20054;-83
2022/08/03 11:53:30;;;;;;;3.17;1.10;;;30.50;44.50;;;;;;5009465;28;20034;-83
2022/08/03 11:55:59;;;;;;;1.08;0.98;;;30.50;43.80;;;;;;5004352;28;20023;-84
2022/08/03 11:58:27;;;;;;;2.60;1.45;;;30.50;43.30;;;;;;5002352;28;20076;-83
2022/08/03 12:01:11;;;;;;;2.47;2.28;;;30.50;43.00;;;;;;5003517;28;20026;-83
2022/08/03 12:03:36;;;;;;;2.75;1.50;;;30.50;43.70;;;;;;5000639;28;20018;-83
2022/08/03 12:06:08;;;;;;;2.65;1.27;;;30.60;43.70;;;;;;4991739;28;20363;-83
2022/08/03 12:08:34;;;;;;;2.80;1.40;;;30.60;42.40;;;;;;4991807;28;20113;-83
2022/08/03 12:11:06;;;;;;;1.20;1.10;;;30.70;42.40;;;;;;4993043;28;20097;-83
2022/08/03 12:13:43;;;;;;;1.75;1.30;;;30.70;43.20;;;;;;4993202;28;20023;-84
2022/08/03 12:16:10;;;;;;;1.30;1.08;;;30.90;42.40;;;;;;4991813;28;20073;-84
2022/08/03 12:18:35;;;;;;;2.55;1.50;;;30.90;42.80;;;;;;4991907;28;20517;-84
2022/08/03 12:21:08;;;;;;;2.28;1.27;;;31.00;42.20;;;;;;4993156;28;20080;-84
2022/08/03 12:23:34;;;;;;;3.30;1.23;;;30.90;42.10;;;;;;4992713;28;20034;-84
2022/08/03 12:26:08;;;;;;;1.45;1.20;;;30.70;42.50;;;;;;4991493;28;20025;-84
2022/08/03 12:28:34;;;;;;;1.42;1.08;;;30.60;43.30;;;;;;4992970;28;20022;-86
2022/08/03 12:31:06;;;;;;;2.17;1.45;;;30.50;43.10;;;;;;4991609;28;20023;-84
2022/08/03 12:33:52;;;;;;;2.95;1.25;;;30.40;43.60;;;;;;4992809;28;20034;-84
2022/08/03 12:36:19;;;;;;;1.35;1.27;;;30.50;44.40;;;;;;4992738;28;20046;-85
2022/08/03 12:38:55;;;;;;;2.58;0.82;;;30.60;42.90;;;;;;5010371;28;20057;-84
2022/08/03 12:41:34;;;;;;;5.07;1.15;;;30.60;43.30;;;;;;5010671;28;20489;-84
2022/08/03 12:44:01;;;;;;;6.88;1.60;;;30.70;42.90;;;;;;5010234;28;20030;-84
2022/08/03 12:46:35;;;;;;;2.20;1.08;;;30.80;42.40;;;;;;5009764;28;20018;-84
2022/08/03 12:49:04;;;;;;;6.05;1.30;;;30.90;42.40;;;;;;5011618;28;20075;-84
2022/08/03 12:51:43;;;;;;;4.32;1.35;;;31.00;41.90;;;;;;5012927;28;20030;-88
2022/08/03 12:54:31;;;;;;;2.58;1.00;;;31.10;42.40;;;;;;5013000;28;20076;-87
2022/08/03 12:57:01;;;;;;;2.50;1.05;;;31.20;41.80;;;;;;5012705;28;20022;-87
2022/08/03 12:59:32;;;;;;;4.72;1.10;;;31.40;40.20;;;;;;5012029;28;20030;-87
2022/08/03 13:02:18;;;;;;;1.67;1.50;;;31.40;40.90;;;;;;5013047;28;20026;-89
2022/08/03 13:04:45;;;;;;;4.43;1.27;;;31.30;41.60;;;;;;5012975;28;20057;-88
2022/08/03 13:07:11;;;;;;;3.72;1.10;;;31.20;42.20;;;;;;5012894;28;20076;-90
2022/08/03 13:10:06;;;;;;;1.33;1.23;;;31.10;42.30;;;;;;5012721;28;20036;-87
2022/08/03 13:12:31;;;;;;;1.27;1.10;;;31.00;41.90;;;;;;4998546;28;20022;-86
2022/08/03 13:14:58;;;;;;;3.83;1.55;;;31.00;43.80;;;;;;5011571;28;20034;-87
2022/08/03 13:17:25;;;;;;;2.33;1.33;;;31.00;42.80;;;;;;5006632;28;20038;-88
2022/08/03 13:19:53;;;;;;;4.93;1.17;;;31.10;42.30;;;;;;5009072;28;20018;-86
2022/08/03 13:22:32;;;;;;;1.30;1.20;;;31.20;41.20;;;;;;5012082;28;20026;-88
2022/08/03 13:24:59;;;;;;;3.13;1.13;;;31.50;40.30;;;;;;5010158;28;20539;-88
2022/08/03 13:27:34;;;;;;;2.88;1.52;;;31.70;40.60;;;;;;5012844;28;20022;-88
2022/08/03 13:30:00;;;;;;;;;;;31.80;40.60;;;;;;5012354;28;20022;-88
2022/08/03 13:32:29;;;;;;;1.48;1.13;;;31.70;39.70;;;;;;5003904;28;19916;-87
2022/08/03 13:34:55;;;;;;;8.15;1.27;;;31.80;39.90;;;;;;5008008;28;20022;-88
2022/08/03 13:37:28;;;;;;;6.32;1.58;;;31.70;39.20;;;;;;5009818;28;20030;-86
2022/08/03 13:39:54;;;;;;;5.40;1.15;;;31.70;39.50;;;;;;5012210;28;20026;-88
2022/08/03 13:42:38;;;;;;;3.15;1.30;;;31.70;40.10;;;;;;5008519;28;20094;-87
2022/08/03 13:45:08;;;;;;;1.10;0.90;;;31.70;40.60;;;;;;5005087;28;20018;-88
2022/08/03 13:47:37;;;;;;;4.30;1.30;;;31.90;39.70;;;;;;5008636;28;20029;-87
2022/08/03 13:50:03;;;;;;;6.28;1.50;;;31.90;40.40;;;;;;5010656;28;20109;-88
2022/08/03 13:52:45;;;;;;;4.80;1.25;;;31.90;40.10;;;;;;5013766;28;20494;-88
2022/08/03 13:55:11;;;;;;;12.65;1.90;;;31.90;40.10;;;;;;5012781;28;20105;-88
2022/08/03 13:57:39;;;;;;;10.80;1.17;;;31.80;40.60;;;;;;5013244;28;20498;-89
2022/08/03 14:00:06;;;;;;;2.10;1.35;;;31.80;40.30;;;;;;5013402;28;20022;-89
2022/08/03 14:02:42;;;;;;;2.33;1.95;;;31.70;39.80;;;;;;5010631;28;20152;-88
2022/08/03 14:05:08;;;;;;;4.63;1.35;;;31.90;39.90;;;;;;5014184;28;20029;-88
2022/08/03 14:07:36;;;;;;;1.20;1.10;;;32.00;40.40;;;;;;5014306;28;20022;-88
2022/08/03 14:10:01;;;;;;;5.95;1.38;;;32.20;40.10;;;;;;4999377;28;20025;-89
2022/08/03 14:12:27;;;;;;;5.03;1.85;;;32.10;39.90;;;;;;5015686;28;20026;-87
2022/08/03 14:14:53;;;;;;;2.05;1.33;;;32.10;39.70;;;;;;5014324;28;20458;-88
2022/08/03 14:17:19;;;;;;;2.97;1.25;;;32.10;39.30;;;;;;5014762;28;20179;-89
2022/08/03 14:19:45;;;;;;;3.17;1.15;;;32.00;39.90;;;;;;5013786;28;20026;-89
2022/08/03 14:22:11;;;;;;;2.80;1.17;;;32.20;38.60;;;;;;5014672;28;20040;-88
2022/08/03 14:24:36;;;;;;;2.05;1.15;;;32.40;38.60;;;;;;5012984;28;20045;-89
2022/08/03 14:27:07;;;;;;;2.47;1.30;;;32.50;38.10;;;;;;5014826;28;20088;-88
2022/08/03 14:29:32;;;;;;;3.75;1.70;;;32.50;38.30;;;;;;5006184;28;20506;-88
2022/08/03 14:31:58;;;;;;;2.30;1.17;;;32.60;39.00;;;;;;5010320;28;20026;-88
2022/08/03 14:34:23;;;;;;;4.93;1.73;;;32.60;38.10;;;;;;5013114;28;20085;-88
2022/08/03 14:36:49;;;;;;;6.07;1.30;;;32.50;38.40;;;;;;5012662;28;20110;-89
2022/08/03 14:39:14;;;;;;;3.70;1.48;;;32.50;38.10;;;;;;5013437;28;20032;-89
2022/08/03 14:42:26;;;;;;;1.38;1.17;;;32.40;38.50;;;;;;5002882;28;20030;-88
2022/08/03 14:44:51;;;;;;;2.75;1.23;;;32.40;38.50;;;;;;4997663;28;20494;-88
2022/08/03 14:50:39;;;;;;;2.33;1.27;;;32.50;38.30;;;;;;4995901;28;20077;-89
2022/08/03 14:53:07;;;;;;;4.40;1.20;;;32.40;38.80;;;;;;4995334;28;20390;-88
2022/08/03 14:55:32;;;;;;;2.83;1.23;;;32.40;38.30;;;;;;4994899;28;20026;-88
2022/08/03 14:57:58;;;;;;;4.10;1.38;;;32.50;37.90;;;;;;5005722;28;20363;-87
2022/08/03 15:00:41;;;;;;;1.63;1.27;;;32.60;38.20;;;;;;5008794;28;20108;-88
2022/08/03 15:03:07;;;;;;;1.38;1.20;;;32.70;38.20;;;;;;5013967;28;20110;-88
2022/08/03 15:05:33;;;;;;;2.20;1.10;;;32.70;38.50;;;;;;5013367;28;20104;-88
2022/08/03 15:08:04;;;;;;;3.83;1.38;;;32.80;38.30;;;;;;5008256;28;20113;-87
2022/08/03 15:10:29;;;;;;;1.27;0.93;;;32.90;37.10;;;;;;5009380;28;20054;-88
2022/08/03 15:12:55;;;;;;;2.88;1.15;;;32.80;36.90;;;;;;5009933;28;20076;-87
2022/08/03 15:15:40;;;;;;;1.17;1.00;;;32.70;38.30;;;;;;5000272;28;20117;-87
2022/08/03 15:18:06;;;;;;;7.20;1.10;;;32.80;37.50;;;;;;5006457;28;20061;-88
2022/08/03 15:20:38;;;;;;;6.07;1.33;;;32.70;37.80;;;;;;5011858;28;20037;-88
2022/08/03 15:23:04;;;;;;;3.00;1.30;;;32.70;36.80;;;;;;5007948;28;20068;-87
2022/08/03 15:25:29;;;;;;;5.25;1.00;;;32.70;37.60;;;;;;5007346;28;20062;-87
2022/08/03 15:28:02;;;;;;;1.33;1.10;;;32.60;36.50;;;;;;5010880;28;20451;-88
2022/08/03 15:30:27;;;;;;;1.50;1.33;;;32.60;37.80;;;;;;5013520;28;20076;-88
2022/08/03 15:32:52;;;;;;;2.50;1.15;;;32.60;37.60;;;;;;5013913;28;20033;-87
2022/08/03 15:35:19;;;;;;;9.15;1.58;;;32.60;37.60;;;;;;5012778;28;20524;-88
2022/08/03 15:37:45;;;;;;;3.47;1.50;;;32.70;36.70;;;;;;5013998;28;20018;-86
2022/08/03 15:40:11;;;;;;;1.00;1.00;;;32.70;37.30;;;;;;5013347;28;20028;-87
2022/08/03 15:42:37;;;;;;;3.33;1.45;;;32.70;38.00;;;;;;5008384;28;20057;-87
2022/08/03 15:45:03;;;;;;;10.18;1.77;;;32.60;37.40;;;;;;5013333;28;20386;-87
2022/08/03 15:47:29;;;;;;;3.55;1.67;;;32.60;37.30;;;;;;5007120;28;20022;-88
2022/08/03 15:53:16;;;;;;;4.03;1.25;;;32.60;37.30;;;;;;5009749;28;20038;-89
2022/08/03 15:55:50;;;;;;;3.20;1.33;;;32.60;37.00;;;;;;5006425;28;20458;-87
2022/08/03 15:58:15;;;;;;;5.85;1.13;;;32.50;36.70;;;;;;4999810;28;20109;-88
2022/08/03 16:00:43;;;;;;;1.67;1.08;;;32.60;37.30;;;;;;5013764;28;20061;-89
2022/08/03 16:03:09;;;;;;;1.95;1.10;;;32.60;36.40;;;;;;5005794;28;20026;-87
2022/08/03 16:06:03;;;;;;;1.75;1.15;;;32.60;36.80;;;;;;5001093;28;20438;-88
2022/08/03 16:08:28;;;;;;;1.92;1.30;;;32.70;36.70;;;;;;5009347;28;20034;-88
2022/08/03 16:10:56;;;;;;;2.90;1.00;;;32.70;36.00;;;;;;5007139;28;20026;-87
2022/08/03 16:13:22;;;;;;;5.20;1.10;;;32.70;35.70;;;;;;5003109;28;20032;-89
2022/08/03 16:15:55;;;;;;;7.68;1.10;;;32.70;36.00;;;;;;5011966;28;20102;-87
2022/08/03 16:18:21;;;;;;;1.95;1.10;;;32.60;36.40;;;;;;5011159;28;20224;-87
2022/08/03 16:20:46;;;;;;;4.30;1.10;;;32.60;36.20;;;;;;5001615;28;20113;-87
2022/08/03 16:23:25;;;;;;;5.70;1.05;;;32.60;37.30;;;;;;4999887;28;20054;-88
2022/08/03 16:25:51;;;;;;;3.65;0.95;;;32.50;36.60;;;;;;5001455;28;20076;-87
2022/08/03 16:28:17;;;;;;;0.98;0.95;;;32.50;36.50;;;;;;5002274;28;20426;-86
2022/08/03 16:30:44;;;;;;;3.20;1.20;;;32.60;36.80;;;;;;5015104;28;20030;-86
2022/08/03 16:33:34;;;;;;;2.72;1.13;;;32.70;36.10;;;;;;5009070;28;20046;-87
2022/08/03 16:36:00;;;;;;;2.78;1.10;;;32.70;35.80;;;;;;5012806;28;20104;-87
2022/08/03 16:38:46;;;;;;;2.70;0.85;;;32.70;36.00;;;;;;5012760;28;20030;-87
2022/08/03 16:41:12;;;;;;;5.97;1.60;;;32.60;36.60;;;;;;5013229;28;20494;-87
2022/08/03 16:43:44;;;;;;;2.50;1.20;;;32.50;36.40;;;;;;5013311;28;20033;-85
2022/08/03 16:46:10;;;;;;;2.50;1.02;;;32.30;37.20;;;;;;5013311;28;20359;-88
2022/08/03 16:49:10;;;;;;;1.13;1.02;;;32.20;38.50;;;;;;5012206;28;20101;-88
2022/08/03 16:51:38;;;;;;;1.63;1.40;;;32.10;37.30;;;;;;5013338;28;20037;-89
2022/08/03 16:54:14;;;;;;;2.10;1.38;;;32.00;38.00;;;;;;5013014;28;20532;-86
2022/08/03 16:56:40;;;;;;;2.75;1.38;;;31.80;37.90;;;;;;5008060;28;20030;-87
2022/08/03 16:59:43;;;;;;;7.93;1.27;;;31.80;38.70;;;;;;5003844;28;20117;-88
2022/08/03 17:02:19;;;;;;;3.78;1.23;;;31.70;39.30;;;;;;4999054;28;20051;-89
2022/08/03 17:04:45;;;;;;;1.33;1.23;;;31.70;39.60;;;;;;4995066;28;20042;-89
2022/08/03 17:07:19;;;;;;;2.67;1.10;;;31.60;39.60;;;;;;5011989;28;20470;-90
2022/08/03 17:09:45;;;;;;;4.22;1.40;;;31.60;39.10;;;;;;5013552;28;20105;-89
2022/08/03 17:12:31;;;;;;;1.20;1.10;;;31.60;39.10;;;;;;5013913;28;20065;-89
2022/08/03 17:14:56;;;;;;;4.75;1.15;;;31.50;39.00;;;;;;5009210;28;20033;-89
2022/08/03 17:17:30;;;;;;;5.85;1.10;;;31.50;39.20;;;;;;5006347;28;20049;-89
2022/08/03 17:20:00;;;;;;;1.30;1.20;;;31.50;39.50;;;;;;4999047;28;20037;-90
2022/08/03 17:22:33;;;;;;;8.48;1.55;;;31.50;38.70;;;;;;5010853;28;20030;-89
2022/08/03 17:25:05;;;;;;;3.92;1.48;;;31.40;38.60;;;;;;5007807;28;20113;-89
2022/08/03 17:28:18;;;;;;;2.13;1.38;;;31.40;38.50;;;;;;5011130;28;20026;-89
2022/08/03 17:33:28;;;;;;;2.85;1.17;;;31.30;38.80;;;;;;4999464;28;21921;-89
2022/08/03 17:35:57;;;;;;;1.73;1.30;;;31.30;39.10;;;;;;5015250;28;20026;-89
2022/08/03 17:38:23;;;;;;;1.33;1.17;;;31.20;40.20;;;;;;5016684;28;20394;-90
2022/08/03 17:40:49;;;;;;;3.25;1.17;;;31.10;40.30;;;;;;5015566;28;20045;-89
2022/08/03 17:43:16;;;;;;;4.25;1.33;;;31.00;41.20;;;;;;5016374;28;20026;-90
2022/08/03 17:45:42;;;;;;;4.05;1.50;;;30.90;42.70;;;;;;5015714;28;20053;-88
2022/08/03 17:48:07;;;;;;;1.77;1.58;;;30.80;42.80;;;;;;5017002;28;20060;-89
2022/08/03 17:50:53;;;;;;;1.60;1.10;;;30.80;44.50;;;;;;5014646;28;20046;-89
2022/08/03 17:53:37;;;;;;;2.92;1.15;;;30.50;45.60;;;;;;5014428;28;20148;-90
2022/08/03 17:56:11;;;;;;;3.95;1.30;;;30.40;46.40;;;;;;5016377;28;20033;-90
2022/08/03 17:58:53;;;;;;;1.42;1.20;;;30.30;44.40;;;;;;5015490;28;20022;-89
2022/08/03 18:04:11;;;;;;;2.67;1.20;;;30.00;46.60;;;;;;5015727;28;20079;-90
2022/08/03 18:06:50;;;;;;;6.97;1.83;;;29.90;46.90;;;;;;5015587;28;20022;-90
2022/08/03 18:09:18;;;;;;;1.73;1.38;;;29.80;47.40;;;;;;5002636;28;20080;-89
2022/08/03 18:11:53;;;;;;;2.38;1.40;;;29.70;48.30;;;;;;4995062;28;20382;-89
2022/08/03 18:14:45;;;;;;;2.03;1.48;;;29.50;49.30;;;;;;4999226;28;20022;-90
2022/08/03 18:17:26;;;;;;;3.67;1.25;;;29.30;49.70;;;;;;5013976;28;20049;-90
2022/08/03 18:19:54;;;;;;;3.63;1.40;;;29.10;50.50;;;;;;5015570;28;20022;-89
2022/08/03 18:22:33;;;;;;;5.85;1.75;;;29.00;50.50;;;;;;5004864;28;20065;-89
2022/08/03 18:24:59;;;;;;;1.90;1.42;;;28.80;50.80;;;;;;5006221;28;20031;-89
2022/08/03 18:27:26;;;;;;;2.20;1.40;;;28.70;51.50;;;;;;5013542;28;20462;-89
2022/08/03 18:29:53;;;;;;;3.75;1.35;;;28.50;51.60;;;;;;5013777;28;20029;-90
2022/08/03 18:32:19;;;;;;;6.63;1.20;;;28.40;51.20;;;;;;5006872;28;20553;-89
2022/08/03 18:34:49;;;;;;;3.70;1.50;;;28.20;52.10;;;;;;5001548;28;20057;-90
2022/08/03 18:37:17;;;;;;;2.35;1.10;;;28.10;51.50;;;;;;5013009;28;20030;-89
2022/08/03 18:39:45;;;;;;;8.18;1.45;;;28.00;51.20;;;;;;5002218;28;20026;-90
2022/08/03 18:42:26;;;;;;;3.05;1.50;;;27.90;50.70;;;;;;5014076;28;20393;-90
2022/08/03 18:44:51;;;;;;;2.13;1.85;;;27.80;50.50;;;;;;5007004;28;20036;-89
2022/08/03 18:47:58;;;;;;;3.70;2.10;;;27.70;51.30;;;;;;4997314;28;20030;-90
2022/08/03 18:50:33;;;;;;;6.57;1.85;;;27.60;51.60;;;;;;5010414;28;20488;-90
2022/08/03 18:53:19;;;;;;;5.60;1.70;;;27.50;53.20;;;;;;5012023;28;20126;-90
2022/08/03 18:56:02;;;;;;;2.17;1.60;;;27.30;52.20;;;;;;5023030;28;20398;-89
2022/08/03 18:59:09;;;;;;;3.42;1.40;;;27.20;52.10;;;;;;5008483;28;20026;-90
2022/08/03 19:01:42;;;;;;;4.30;1.50;;;27.20;51.50;;;;;;4995400;28;20036;-90
2022/08/03 19:04:34;;;;;;;3.78;1.30;;;27.20;52.90;;;;;;5011158;28;20030;-90
2022/08/03 19:07:04;;;;;;;6.55;1.40;;;27.10;53.10;;;;;;5008758;28;20034;-91
2022/08/03 19:09:44;;;;;;;19.15;2.13;;;27.00;53.60;;;;;;5013865;28;20022;-90
2022/08/03 19:12:28;;;;;;;15.13;2.05;;;26.90;54.60;;;;;;5010170;28;20381;-90
2022/08/03 19:15:03;;;;;;;2.78;1.58;;;26.80;55.10;;;;;;5012481;28;20080;-90
2022/08/03 19:17:48;;;;;;;1.88;1.20;;;26.60;56.60;;;;;;5013506;28;20393;-90
2022/08/03 19:20:18;;;;;;;;;;;26.50;56.50;;;;;;5015305;28;20060;-90
2022/08/03 19:22:55;;;;;;;1.30;1.20;;;26.40;56.80;;;;;;5013337;28;19909;-90
2022/08/03 19:25:21;;;;;;;1.73;1.58;;;26.20;57.90;;;;;;5013110;28;20481;-90
2022/08/03 19:28:28;;;;;;;1.73;1.50;;;26.10;59.00;;;;;;5012356;28;20022;-90
2022/08/03 19:30:58;;;;;;;;;;;26.00;59.90;;;;;;5013726;28;20482;-90
2022/08/03 19:36:41;;;;;;;1.45;1.33;;;25.90;64.00;;;;;;5013111;28;20065;-90
2022/08/03 19:39:34;;;;;;;1.85;1.55;;;25.80;66.20;;;;;;5014414;28;20111;-91
2022/08/03 19:42:25;;;;;;;2.05;1.40;;;25.70;67.40;;;;;;5014599;28;20068;-90
2022/08/03 19:45:36;;;;;;;1.38;1.27;;;25.70;69.00;;;;;;5010221;28;20062;-90
2022/08/03 19:48:07;;;;;;;2.80;1.30;;;25.60;73.20;;;;;;5013808;28;20025;-90
2022/08/03 19:50:36;;;;;;;2.97;1.58;;;25.50;76.80;;;;;;5013052;28;20556;-90
2022/08/03 19:53:13;;;;;;;4.00;1.38;;;25.40;81.90;;;;;;5013920;28;20505;-91
2022/08/03 19:55:43;;;;;;;1.70;1.60;;;25.30;85.30;;;;;;5011585;28;20025;-89
2022/08/03 19:58:09;;;;;;;3.92;2.20;;;25.20;88.20;;;;;;5000509;28;20026;-90
2022/08/03 20:00:50;;;;;;;4.15;1.58;;;25.10;90.20;;;;;;5002510;28;20045;-90
2022/08/03 20:03:17;;;;;;;1.67;1.50;;;25.00;91.50;;;;;;5008656;28;20563;-90